sensor_id;sensor_type;location;lat;lon;timestamp;pressure;altitude;pressure_sealevel;temperature;humidity
17230;BME280;8731;50.364;8.958;2024-01-30T00:03:42;101495.84;;;2.18;86.09
17230;BME280;8731;50.364;8.958;2024-01-30T00:08:05;101495.81;;;2.23;86.90
17230;BME280;8731;50.364;8.958;2024-01-30T00:12:28;101497.91;;;2.14;86.78
17230;BME280;8731;50.364;8.958;2024-01-30T00:16:51;101489.94;;;2.06;87.39
17230;BME280;8731;50.364;8.958;2024-01-30T00:21:15;101489.47;;;2.03;88.28
17230;BME280;8731;50.364;8.958;2024-01-30T00:25:38;101489.72;;;2.04;88.49
17230;BME280;8731;50.364;8.958;2024-01-30T00:30:00;101488.56;;;2.02;87.05
17230;BME280;8731;50.364;8.958;2024-01-30T00:34:22;101492.00;;;1.97;87.97
17230;BME280;8731;50.364;8.958;2024-01-30T00:38:46;101500.22;;;2.02;86.74
17230;BME280;8731;50.364;8.958;2024-01-30T00:43:08;101490.41;;;1.87;87.65
17230;BME280;8731;50.364;8.958;2024-01-30T00:47:31;101481.06;;;1.91;86.42
17230;BME280;8731;50.364;8.958;2024-01-30T00:51:53;101489.28;;;1.84;86.99
17230;BME280;8731;50.364;8.958;2024-01-30T00:56:19;101492.47;;;1.83;86.92
17230;BME280;8731;50.364;8.958;2024-01-30T01:00:41;101485.88;;;1.78;87.66
17230;BME280;8731;50.364;8.958;2024-01-30T01:05:04;101485.19;;;1.79;86.81
17230;BME280;8731;50.364;8.958;2024-01-30T01:09:26;101484.75;;;1.76;86.73
17230;BME280;8731;50.364;8.958;2024-01-30T01:13:50;101479.94;;;1.78;86.86
17230;BME280;8731;50.364;8.958;2024-01-30T01:18:12;101486.34;;;1.76;87.52
17230;BME280;8731;50.364;8.958;2024-01-30T01:22:35;101488.38;;;1.78;87.26
17230;BME280;8731;50.364;8.958;2024-01-30T01:26:58;101487.72;;;1.68;88.51
17230;BME280;8731;50.364;8.958;2024-01-30T01:31:22;101492.75;;;1.74;88.66
17230;BME280;8731;50.364;8.958;2024-01-30T01:35:45;101492.06;;;1.75;88.17
17230;BME280;8731;50.364;8.958;2024-01-30T01:40:08;101490.00;;;1.61;88.92
17230;BME280;8731;50.364;8.958;2024-01-30T01:44:30;101479.06;;;1.66;88.68
17230;BME280;8731;50.364;8.958;2024-01-30T01:48:54;101477.00;;;1.64;89.08
17230;BME280;8731;50.364;8.958;2024-01-30T01:53:18;101471.28;;;1.59;89.22
17230;BME280;8731;50.364;8.958;2024-01-30T01:57:41;101476.31;;;1.59;88.41
17230;BME280;8731;50.364;8.958;2024-01-30T02:02:04;101476.75;;;1.62;88.71
17230;BME280;8731;50.364;8.958;2024-01-30T02:06:31;101474.50;;;1.58;88.90
17230;BME280;8731;50.364;8.958;2024-01-30T02:10:54;101474.03;;;1.38;92.58
17230;BME280;8731;50.364;8.958;2024-01-30T02:15:17;101467.69;;;1.46;91.48
17230;BME280;8731;50.364;8.958;2024-01-30T02:19:40;101476.81;;;1.45;91.64
17230;BME280;8731;50.364;8.958;2024-01-30T02:24:04;101468.81;;;1.48;90.48
17230;BME280;8731;50.364;8.958;2024-01-30T02:28:27;101466.28;;;1.53;89.94
17230;BME280;8731;50.364;8.958;2024-01-30T02:32:50;101473.56;;;1.58;92.19
17230;BME280;8731;50.364;8.958;2024-01-30T02:37:12;101458.06;;;1.60;94.70
17230;BME280;8731;50.364;8.958;2024-01-30T02:41:36;101467.22;;;1.43;95.77
17230;BME280;8731;50.364;8.958;2024-01-30T02:45:58;101461.72;;;1.51;93.80
17230;BME280;8731;50.364;8.958;2024-01-30T02:50:21;101461.72;;;1.40;93.18
17230;BME280;8731;50.364;8.958;2024-01-30T02:54:43;101461.03;;;1.35;93.23
17230;BME280;8731;50.364;8.958;2024-01-30T02:59:07;101461.28;;;1.37;93.65
17230;BME280;8731;50.364;8.958;2024-01-30T03:03:29;101455.81;;;1.34;91.47
17230;BME280;8731;50.364;8.958;2024-01-30T03:07:51;101453.97;;;1.33;92.47
17230;BME280;8731;50.364;8.958;2024-01-30T03:12:13;101455.81;;;1.28;91.58
17230;BME280;8731;50.364;8.958;2024-01-30T03:16:37;101461.53;;;1.21;92.08
17230;BME280;8731;50.364;8.958;2024-01-30T03:20:59;101467.91;;;1.19;93.00
17230;BME280;8731;50.364;8.958;2024-01-30T03:25:22;101459.91;;;1.28;92.37
17230;BME280;8731;50.364;8.958;2024-01-30T03:29:44;101453.28;;;1.34;91.82
17230;BME280;8731;50.364;8.958;2024-01-30T03:34:07;101455.13;;;1.35;92.19
17230;BME280;8731;50.364;8.958;2024-01-30T03:38:30;101458.09;;;1.32;92.42
17230;BME280;8731;50.364;8.958;2024-01-30T03:42:52;101454.19;;;1.17;94.13
17230;BME280;8731;50.364;8.958;2024-01-30T03:47:15;101464.47;;;1.25;93.63
17230;BME280;8731;50.364;8.958;2024-01-30T03:51:38;101457.19;;;1.26;93.16
17230;BME280;8731;50.364;8.958;2024-01-30T03:56:01;101450.56;;;1.32;93.02
17230;BME280;8731;50.364;8.958;2024-01-30T04:00:23;101454.44;;;1.36;94.25
17230;BME280;8731;50.364;8.958;2024-01-30T04:04:45;101438.00;;;1.38;94.56
17230;BME280;8731;50.364;8.958;2024-01-30T04:09:09;101433.69;;;1.42;96.88
17230;BME280;8731;50.364;8.958;2024-01-30T04:13:33;101437.34;;;1.44;97.52
17230;BME280;8731;50.364;8.958;2024-01-30T04:17:57;101446.47;;;1.49;97.88
17230;BME280;8731;50.364;8.958;2024-01-30T04:22:20;101439.59;;;1.54;100.00
17230;BME280;8731;50.364;8.958;2024-01-30T04:26:43;101447.56;;;1.57;100.00
17230;BME280;8731;50.364;8.958;2024-01-30T04:31:05;101445.97;;;1.63;99.93
17230;BME280;8731;50.364;8.958;2024-01-30T04:35:28;101446.44;;;1.66;98.76
17230;BME280;8731;50.364;8.958;2024-01-30T04:39:50;101447.78;;;1.70;98.75
17230;BME280;8731;50.364;8.958;2024-01-30T04:44:14;101457.16;;;1.71;98.39
17230;BME280;8731;50.364;8.958;2024-01-30T04:48:36;101448.03;;;1.71;98.76
17230;BME280;8731;50.364;8.958;2024-01-30T04:52:58;101451.88;;;1.75;100.00
17230;BME280;8731;50.364;8.958;2024-01-30T04:57:21;101458.97;;;1.72;100.00
17230;BME280;8731;50.364;8.958;2024-01-30T05:01:44;101448.47;;;1.74;99.82
17230;BME280;8731;50.364;8.958;2024-01-30T05:06:07;101456.66;;;1.79;98.08
17230;BME280;8731;50.364;8.958;2024-01-30T05:10:29;101457.56;;;1.79;96.60
17230;BME280;8731;50.364;8.958;2024-01-30T05:14:51;101465.81;;;1.78;97.01
17230;BME280;8731;50.364;8.958;2024-01-30T05:19:15;101460.78;;;1.78;96.43
17230;BME280;8731;50.364;8.958;2024-01-30T05:23:37;101462.16;;;1.76;95.14
17230;BME280;8731;50.364;8.958;2024-01-30T05:28:00;101469.91;;;1.78;95.96
17230;BME280;8731;50.364;8.958;2024-01-30T05:32:22;101466.25;;;1.76;95.22
17230;BME280;8731;50.364;8.958;2024-01-30T05:36:46;101470.38;;;1.75;95.75
17230;BME280;8731;50.364;8.958;2024-01-30T05:41:09;101466.50;;;1.72;95.94
17230;BME280;8731;50.364;8.958;2024-01-30T05:45:31;101469.00;;;1.77;95.90
17230;BME280;8731;50.364;8.958;2024-01-30T05:49:54;101472.66;;;1.74;96.24
17230;BME280;8731;50.364;8.958;2024-01-30T05:54:18;101478.59;;;1.74;98.00
17230;BME280;8731;50.364;8.958;2024-01-30T05:58:40;101477.22;;;1.76;98.63
17230;BME280;8731;50.364;8.958;2024-01-30T06:03:03;101480.84;;;1.78;98.38
17230;BME280;8731;50.364;8.958;2024-01-30T06:07:26;101479.03;;;1.77;99.18
17230;BME280;8731;50.364;8.958;2024-01-30T06:11:49;101470.13;;;1.79;97.93
17230;BME280;8731;50.364;8.958;2024-01-30T06:16:12;101479.72;;;1.76;97.06
17230;BME280;8731;50.364;8.958;2024-01-30T06:20:34;101485.41;;;1.81;97.18
17230;BME280;8731;50.364;8.958;2024-01-30T06:24:56;101479.94;;;1.78;98.14
17230;BME280;8731;50.364;8.958;2024-01-30T06:29:20;101482.94;;;1.75;99.11
17230;BME280;8731;50.364;8.958;2024-01-30T06:33:46;101481.53;;;1.77;99.71
17230;BME280;8731;50.364;8.958;2024-01-30T06:38:09;101474.94;;;1.78;100.00
17230;BME280;8731;50.364;8.958;2024-01-30T06:42:31;101474.25;;;1.79;99.18
17230;BME280;8731;50.364;8.958;2024-01-30T06:46:54;101476.53;;;1.77;99.46
17230;BME280;8731;50.364;8.958;2024-01-30T06:51:17;101484.97;;;1.78;98.94
17230;BME280;8731;50.364;8.958;2024-01-30T06:55:39;101479.72;;;1.76;99.43
17230;BME280;8731;50.364;8.958;2024-01-30T07:00:05;101466.25;;;1.76;98.60
17230;BME280;8731;50.364;8.958;2024-01-30T07:04:30;101468.31;;;1.78;98.72
17230;BME280;8731;50.364;8.958;2024-01-30T07:08:52;101477.69;;;1.74;99.40
17230;BME280;8731;50.364;8.958;2024-01-30T07:13:14;101477.66;;;1.79;99.08
17230;BME280;8731;50.364;8.958;2024-01-30T07:17:37;101480.63;;;1.82;98.79
17230;BME280;8731;50.364;8.958;2024-01-30T07:22:01;101482.44;;;1.83;98.71
17230;BME280;8731;50.364;8.958;2024-01-30T07:26:23;101479.47;;;1.80;98.60
17230;BME280;8731;50.364;8.958;2024-01-30T07:30:48;101476.06;;;1.80;99.49
17230;BME280;8731;50.364;8.958;2024-01-30T07:35:10;101479.00;;;1.89;98.30
17230;BME280;8731;50.364;8.958;2024-01-30T07:39:34;101480.84;;;1.95;98.89
17230;BME280;8731;50.364;8.958;2024-01-30T07:43:57;101481.50;;;2.00;98.32
17230;BME280;8731;50.364;8.958;2024-01-30T07:48:25;101475.31;;;2.03;97.75
17230;BME280;8731;50.364;8.958;2024-01-30T07:52:47;101474.84;;;2.11;98.95
17230;BME280;8731;50.364;8.958;2024-01-30T07:57:13;101472.78;;;2.20;97.87
17230;BME280;8731;50.364;8.958;2024-01-30T08:01:35;101475.44;;;2.33;97.71
17230;BME280;8731;50.364;8.958;2024-01-30T08:05:57;101487.53;;;2.35;100.00
17230;BME280;8731;50.364;8.958;2024-01-30T08:10:20;101493.91;;;2.44;100.00
17230;BME280;8731;50.364;8.958;2024-01-30T08:14:48;101490.88;;;2.64;99.39
17230;BME280;8731;50.364;8.958;2024-01-30T08:19:10;101487.38;;;2.74;99.46
17230;BME280;8731;50.364;8.958;2024-01-30T08:23:33;101491.78;;;2.99;98.59
17230;BME280;8731;50.364;8.958;2024-01-30T08:27:55;101491.25;;;3.13;99.25
17230;BME280;8731;50.364;8.958;2024-01-30T08:32:19;101487.13;;;3.43;98.00
17230;BME280;8731;50.364;8.958;2024-01-30T08:36:41;101501.56;;;3.68;97.63
17230;BME280;8731;50.364;8.958;2024-01-30T08:41:04;101495.53;;;3.97;95.50
17230;BME280;8731;50.364;8.958;2024-01-30T08:45:26;101494.59;;;4.20;97.10
17230;BME280;8731;50.364;8.958;2024-01-30T08:49:50;101497.84;;;4.38;95.29
17230;BME280;8731;50.364;8.958;2024-01-30T08:54:12;101488.06;;;4.52;95.09
17230;BME280;8731;50.364;8.958;2024-01-30T08:58:35;101487.69;;;5.11;94.06
17230;BME280;8731;50.364;8.958;2024-01-30T09:02:57;101490.22;;;5.11;93.58
17230;BME280;8731;50.364;8.958;2024-01-30T09:07:21;101497.03;;;5.30;92.22
17230;BME280;8731;50.364;8.958;2024-01-30T09:11:43;101494.44;;;5.61;90.67
17230;BME280;8731;50.364;8.958;2024-01-30T09:16:06;101506.84;;;5.34;90.02
17230;BME280;8731;50.364;8.958;2024-01-30T09:20:28;101510.75;;;5.76;89.63
17230;BME280;8731;50.364;8.958;2024-01-30T09:24:52;101518.00;;;5.67;89.50
17230;BME280;8731;50.364;8.958;2024-01-30T09:29:14;101526.81;;;5.89;88.54
17230;BME280;8731;50.364;8.958;2024-01-30T09:33:36;101521.44;;;5.55;89.06
17230;BME280;8731;50.364;8.958;2024-01-30T09:37:59;101511.22;;;5.86;89.20
17230;BME280;8731;50.364;8.958;2024-01-30T09:42:30;101505.81;;;6.08;88.59
17230;BME280;8731;50.364;8.958;2024-01-30T09:46:56;101506.44;;;6.00;88.40
17230;BME280;8731;50.364;8.958;2024-01-30T09:51:24;101512.50;;;6.21;88.05
17230;BME280;8731;50.364;8.958;2024-01-30T09:55:50;101510.28;;;6.17;87.92
17230;BME280;8731;50.364;8.958;2024-01-30T10:00:14;101500.63;;;6.39;87.19
17230;BME280;8731;50.364;8.958;2024-01-30T10:04:37;101506.34;;;6.51;87.22
17230;BME280;8731;50.364;8.958;2024-01-30T10:08:59;101491.50;;;6.47;86.94
17230;BME280;8731;50.364;8.958;2024-01-30T10:13:21;101505.13;;;6.55;86.61
17230;BME280;8731;50.364;8.958;2024-01-30T10:17:45;101508.09;;;6.77;86.24
17230;BME280;8731;50.364;8.958;2024-01-30T10:22:09;101496.69;;;6.61;86.21
17230;BME280;8731;50.364;8.958;2024-01-30T10:26:31;101484.22;;;6.75;86.68
17230;BME280;8731;50.364;8.958;2024-01-30T10:30:57;101489.75;;;6.53;87.85
17230;BME280;8731;50.364;8.958;2024-01-30T10:35:22;101476.81;;;6.97;87.30
17230;BME280;8731;50.364;8.958;2024-01-30T10:39:45;101464.88;;;7.35;85.71
17230;BME280;8731;50.364;8.958;2024-01-30T10:44:08;101466.50;;;7.15;86.47
17230;BME280;8731;50.364;8.958;2024-01-30T10:48:32;101458.72;;;7.60;85.11
17230;BME280;8731;50.364;8.958;2024-01-30T10:53:04;101465.31;;;7.80;84.42
17230;BME280;8731;50.364;8.958;2024-01-30T10:57:27;101469.75;;;7.95;84.40
17230;BME280;8731;50.364;8.958;2024-01-30T11:01:50;101470.88;;;7.70;84.13
17230;BME280;8731;50.364;8.958;2024-01-30T11:06:14;101470.19;;;7.78;83.03
17230;BME280;8731;50.364;8.958;2024-01-30T11:10:46;101472.09;;;7.93;83.14
17230;BME280;8731;50.364;8.958;2024-01-30T11:15:10;101471.66;;;8.10;83.04
17230;BME280;8731;50.364;8.958;2024-01-30T11:19:34;101468.97;;;8.23;82.77
17230;BME280;8731;50.364;8.958;2024-01-30T11:23:57;101468.44;;;8.25;82.40
17230;BME280;8731;50.364;8.958;2024-01-30T11:28:21;101468.84;;;8.28;82.05
17230;BME280;8731;50.364;8.958;2024-01-30T11:32:44;101460.38;;;8.42;81.24
17230;BME280;8731;50.364;8.958;2024-01-30T11:37:09;101457.91;;;8.56;80.95
17230;BME280;8731;50.364;8.958;2024-01-30T11:41:36;101459.75;;;8.86;80.11
17230;BME280;8731;50.364;8.958;2024-01-30T11:46:01;101457.94;;;8.78;79.51
17230;BME280;8731;50.364;8.958;2024-01-30T11:50:24;101456.31;;;8.85;79.38
17230;BME280;8731;50.364;8.958;2024-01-30T11:54:47;101452.47;;;8.68;79.70
17230;BME280;8731;50.364;8.958;2024-01-30T11:59:09;101443.81;;;8.80;79.80
17230;BME280;8731;50.364;8.958;2024-01-30T12:03:33;101437.59;;;8.71;80.02
17230;BME280;8731;50.364;8.958;2024-01-30T12:07:55;101441.25;;;8.87;79.65
17230;BME280;8731;50.364;8.958;2024-01-30T12:12:19;101428.56;;;8.94;78.85
17230;BME280;8731;50.364;8.958;2024-01-30T12:16:42;101419.16;;;9.00;79.36
17230;BME280;8731;50.364;8.958;2024-01-30T12:21:06;101422.03;;;9.10;79.49
17230;BME280;8731;50.364;8.958;2024-01-30T12:25:29;101428.03;;;9.11;79.12
17230;BME280;8731;50.364;8.958;2024-01-30T12:29:55;101429.13;;;9.13;78.89
17230;BME280;8731;50.364;8.958;2024-01-30T12:34:18;101432.16;;;9.53;79.24
17230;BME280;8731;50.364;8.958;2024-01-30T12:38:42;101424.44;;;9.89;77.23
17230;BME280;8731;50.364;8.958;2024-01-30T12:43:05;101414.25;;;9.89;76.70
17230;BME280;8731;50.364;8.958;2024-01-30T12:47:27;101411.63;;;10.10;76.44
17230;BME280;8731;50.364;8.958;2024-01-30T12:51:49;101405.50;;;10.38;76.03
17230;BME280;8731;50.364;8.958;2024-01-30T12:56:13;101403.47;;;10.50;75.74
17230;BME280;8731;50.364;8.958;2024-01-30T13:00:36;101399.59;;;10.53;75.06
17230;BME280;8731;50.364;8.958;2024-01-30T13:04:58;101398.50;;;10.28;75.00
17230;BME280;8731;50.364;8.958;2024-01-30T13:09:20;101381.00;;;10.61;75.53
17230;BME280;8731;50.364;8.958;2024-01-30T13:13:44;101387.88;;;10.69;75.99
17230;BME280;8731;50.364;8.958;2024-01-30T13:18:07;101372.50;;;10.54;75.52
17230;BME280;8731;50.364;8.958;2024-01-30T13:22:30;101381.97;;;10.25;75.73
17230;BME280;8731;50.364;8.958;2024-01-30T13:26:52;101383.78;;;10.19;77.09
17230;BME280;8731;50.364;8.958;2024-01-30T13:31:17;101376.25;;;9.97;76.44
17230;BME280;8731;50.364;8.958;2024-01-30T13:35:39;101386.63;;;9.92;77.17
17230;BME280;8731;50.364;8.958;2024-01-30T13:40:03;101383.06;;;9.68;76.75
17230;BME280;8731;50.364;8.958;2024-01-30T13:44:28;101376.63;;;9.93;76.91
17230;BME280;8731;50.364;8.958;2024-01-30T13:48:52;101379.66;;;10.05;76.70
17230;BME280;8731;50.364;8.958;2024-01-30T13:53:14;101394.59;;;10.02;76.77
17230;BME280;8731;50.364;8.958;2024-01-30T13:57:36;101394.66;;;9.80;77.35
17230;BME280;8731;50.364;8.958;2024-01-30T14:02:01;101397.78;;;9.78;77.30
17230;BME280;8731;50.364;8.958;2024-01-30T14:06:25;101397.72;;;9.85;77.74
17230;BME280;8731;50.364;8.958;2024-01-30T14:10:48;101399.78;;;9.73;78.30
17230;BME280;8731;50.364;8.958;2024-01-30T14:15:10;101402.31;;;9.80;78.00
17230;BME280;8731;50.364;8.958;2024-01-30T14:19:38;101402.72;;;9.62;78.46
17230;BME280;8731;50.364;8.958;2024-01-30T14:24:01;101396.53;;;9.67;78.89
17230;BME280;8731;50.364;8.958;2024-01-30T14:28:24;101395.06;;;9.69;78.81
17230;BME280;8731;50.364;8.958;2024-01-30T14:32:46;101408.81;;;9.85;78.64
17230;BME280;8731;50.364;8.958;2024-01-30T14:37:14;101402.16;;;9.65;79.20
17230;BME280;8731;50.364;8.958;2024-01-30T14:41:38;101405.97;;;9.75;79.39
17230;BME280;8731;50.364;8.958;2024-01-30T14:46:00;101409.50;;;9.47;79.79
17230;BME280;8731;50.364;8.958;2024-01-30T14:50:26;101399.81;;;9.59;79.13
17230;BME280;8731;50.364;8.958;2024-01-30T14:54:48;101411.25;;;9.63;79.65
17230;BME280;8731;50.364;8.958;2024-01-30T14:59:12;101410.16;;;9.61;79.86
17230;BME280;8731;50.364;8.958;2024-01-30T15:03:34;101406.00;;;9.54;80.13
17230;BME280;8731;50.364;8.958;2024-01-30T15:08:00;101417.09;;;9.54;80.41
17230;BME280;8731;50.364;8.958;2024-01-30T15:12:22;101407.28;;;9.58;80.92
17230;BME280;8731;50.364;8.958;2024-01-30T15:16:46;101410.16;;;9.61;80.35
17230;BME280;8731;50.364;8.958;2024-01-30T15:21:08;101405.63;;;9.58;80.95
17230;BME280;8731;50.364;8.958;2024-01-30T15:25:36;101425.63;;;9.55;80.61
17230;BME280;8731;50.364;8.958;2024-01-30T15:29:58;101435.78;;;9.55;80.94
17230;BME280;8731;50.364;8.958;2024-01-30T15:34:22;101429.97;;;9.56;81.06
17230;BME280;8731;50.364;8.958;2024-01-30T15:38:44;101429.63;;;9.53;81.21
17230;BME280;8731;50.364;8.958;2024-01-30T15:43:09;101428.53;;;9.44;81.50
17230;BME280;8731;50.364;8.958;2024-01-30T15:47:31;101431.47;;;9.47;81.66
17230;BME280;8731;50.364;8.958;2024-01-30T15:51:55;101432.88;;;9.45;81.65
17230;BME280;8731;50.364;8.958;2024-01-30T15:56:18;101442.31;;;9.46;82.03
17230;BME280;8731;50.364;8.958;2024-01-30T16:00:40;101447.78;;;9.42;82.00
17230;BME280;8731;50.364;8.958;2024-01-30T16:05:05;101438.34;;;9.34;82.17
17230;BME280;8731;50.364;8.958;2024-01-30T16:09:30;101448.69;;;9.42;81.73
17230;BME280;8731;50.364;8.958;2024-01-30T16:13:52;101441.63;;;9.40;81.99
17230;BME280;8731;50.364;8.958;2024-01-30T16:18:14;101447.78;;;9.35;82.27
17230;BME280;8731;50.364;8.958;2024-01-30T16:22:40;101453.63;;;9.34;82.89
17230;BME280;8731;50.364;8.958;2024-01-30T16:27:04;101446.72;;;9.26;83.66
17230;BME280;8731;50.364;8.958;2024-01-30T16:31:26;101455.44;;;9.28;83.51
17230;BME280;8731;50.364;8.958;2024-01-30T16:35:49;101455.59;;;9.22;83.54
17230;BME280;8731;50.364;8.958;2024-01-30T16:40:14;101461.59;;;9.15;84.01
17230;BME280;8731;50.364;8.958;2024-01-30T16:44:37;101452.69;;;9.19;83.71
17230;BME280;8731;50.364;8.958;2024-01-30T16:49:00;101457.59;;;9.17;84.22
17230;BME280;8731;50.364;8.958;2024-01-30T16:53:22;101462.69;;;9.17;83.69
17230;BME280;8731;50.364;8.958;2024-01-30T16:57:45;101464.88;;;9.14;83.98
17230;BME280;8731;50.364;8.958;2024-01-30T17:02:08;101467.03;;;9.11;84.06
17230;BME280;8731;50.364;8.958;2024-01-30T17:06:33;101479.75;;;9.11;84.55
17230;BME280;8731;50.364;8.958;2024-01-30T17:10:56;101477.56;;;9.07;84.58
17230;BME280;8731;50.364;8.958;2024-01-30T17:15:21;101478.47;;;9.08;84.48
17230;BME280;8731;50.364;8.958;2024-01-30T17:19:45;101492.81;;;9.07;84.39
17230;BME280;8731;50.364;8.958;2024-01-30T17:24:07;101488.81;;;9.02;84.86
17230;BME280;8731;50.364;8.958;2024-01-30T17:28:32;101495.34;;;9.07;84.48
17230;BME280;8731;50.364;8.958;2024-01-30T17:32:59;101513.50;;;9.03;84.67
17230;BME280;8731;50.364;8.958;2024-01-30T17:37:23;101516.94;;;9.04;85.27
17230;BME280;8731;50.364;8.958;2024-01-30T17:41:45;101524.75;;;9.05;84.53
17230;BME280;8731;50.364;8.958;2024-01-30T17:46:07;101529.28;;;9.01;84.68
17230;BME280;8731;50.364;8.958;2024-01-30T17:50:30;101530.38;;;9.03;85.19
17230;BME280;8731;50.364;8.958;2024-01-30T17:54:53;101530.00;;;9.00;85.33
17230;BME280;8731;50.364;8.958;2024-01-30T17:59:16;101537.81;;;9.01;85.22
17230;BME280;8731;50.364;8.958;2024-01-30T18:03:41;101540.34;;;9.01;85.28
17230;BME280;8731;50.364;8.958;2024-01-30T18:08:04;101548.16;;;9.03;85.30
17230;BME280;8731;50.364;8.958;2024-01-30T18:12:29;101544.34;;;8.99;85.45
17230;BME280;8731;50.364;8.958;2024-01-30T18:16:54;101554.69;;;9.01;85.34
17230;BME280;8731;50.364;8.958;2024-01-30T18:21:16;101554.31;;;9.05;85.12
17230;BME280;8731;50.364;8.958;2024-01-30T18:25:39;101557.59;;;9.04;85.35
17230;BME280;8731;50.364;8.958;2024-01-30T18:30:03;101557.72;;;8.98;85.44
17230;BME280;8731;50.364;8.958;2024-01-30T18:34:26;101559.19;;;8.96;85.85
17230;BME280;8731;50.364;8.958;2024-01-30T18:38:51;101561.34;;;8.93;85.47
17230;BME280;8731;50.364;8.958;2024-01-30T18:43:19;101561.00;;;8.90;85.96
17230;BME280;8731;50.364;8.958;2024-01-30T18:47:43;101563.16;;;8.80;85.77
17230;BME280;8731;50.364;8.958;2024-01-30T18:52:05;101559.16;;;8.82;85.79
17230;BME280;8731;50.364;8.958;2024-01-30T18:56:28;101561.88;;;8.76;86.06
17230;BME280;8731;50.364;8.958;2024-01-30T19:00:50;101568.03;;;8.78;85.85
17230;BME280;8731;50.364;8.958;2024-01-30T19:05:14;101568.91;;;8.72;85.80
17230;BME280;8731;50.364;8.958;2024-01-30T19:09:36;101575.25;;;8.68;85.81
17230;BME280;8731;50.364;8.958;2024-01-30T19:13:59;101565.81;;;8.67;85.73
17230;BME280;8731;50.364;8.958;2024-01-30T19:18:21;101571.78;;;8.60;86.10
17230;BME280;8731;50.364;8.958;2024-01-30T19:22:45;101575.75;;;8.58;86.43
17230;BME280;8731;50.364;8.958;2024-01-30T19:27:07;101579.38;;;8.53;86.86
17230;BME280;8731;50.364;8.958;2024-01-30T19:31:32;101587.47;;;8.51;86.77
17230;BME280;8731;50.364;8.958;2024-01-30T19:35:55;101592.06;;;8.53;87.29
17230;BME280;8731;50.364;8.958;2024-01-30T19:40:25;101581.47;;;8.43;87.41
17230;BME280;8731;50.364;8.958;2024-01-30T19:44:48;101598.91;;;8.47;87.75
17230;BME280;8731;50.364;8.958;2024-01-30T19:49:14;101589.09;;;8.43;87.85
17230;BME280;8731;50.364;8.958;2024-01-30T19:53:36;101587.84;;;8.47;87.44
17230;BME280;8731;50.364;8.958;2024-01-30T19:58:00;101599.28;;;8.50;87.76
17230;BME280;8731;50.364;8.958;2024-01-30T20:02:24;101596.00;;;8.51;88.24
17230;BME280;8731;50.364;8.958;2024-01-30T20:06:48;101596.00;;;8.51;88.00
17230;BME280;8731;50.364;8.958;2024-01-30T20:11:13;101601.50;;;8.54;88.08
17230;BME280;8731;50.364;8.958;2024-01-30T20:15:37;101596.16;;;8.39;89.34
17230;BME280;8731;50.364;8.958;2024-01-30T20:20:04;101605.78;;;8.48;88.89
17230;BME280;8731;50.364;8.958;2024-01-30T20:24:29;101600.91;;;8.50;88.83
17230;BME280;8731;50.364;8.958;2024-01-30T20:28:52;101608.69;;;8.51;89.00
17230;BME280;8731;50.364;8.958;2024-01-30T20:33:16;101605.66;;;8.54;89.02
17230;BME280;8731;50.364;8.958;2024-01-30T20:37:40;101609.84;;;8.53;89.25
17230;BME280;8731;50.364;8.958;2024-01-30T20:42:03;101611.84;;;8.56;89.16
17230;BME280;8731;50.364;8.958;2024-01-30T20:46:26;101611.31;;;8.58;89.14
17230;BME280;8731;50.364;8.958;2024-01-30T20:50:49;101607.66;;;8.56;89.36
17230;BME280;8731;50.364;8.958;2024-01-30T20:55:15;101612.03;;;8.57;89.48
17230;BME280;8731;50.364;8.958;2024-01-30T20:59:37;101624.38;;;8.61;89.61
17230;BME280;8731;50.364;8.958;2024-01-30T21:04:03;101629.44;;;8.61;89.93
17230;BME280;8731;50.364;8.958;2024-01-30T21:08:29;101631.25;;;8.63;90.30
17230;BME280;8731;50.364;8.958;2024-01-30T21:12:52;101624.56;;;8.63;90.51
17230;BME280;8731;50.364;8.958;2024-01-30T21:17:14;101627.63;;;8.60;90.66
17230;BME280;8731;50.364;8.958;2024-01-30T21:21:36;101630.91;;;8.67;91.15
17230;BME280;8731;50.364;8.958;2024-01-30T21:26:00;101636.91;;;8.67;91.46
17230;BME280;8731;50.364;8.958;2024-01-30T21:30:24;101639.06;;;8.64;91.71
17230;BME280;8731;50.364;8.958;2024-01-30T21:34:48;101640.34;;;8.68;92.33
17230;BME280;8731;50.364;8.958;2024-01-30T21:39:10;101644.69;;;8.69;92.38
17230;BME280;8731;50.364;8.958;2024-01-30T21:43:34;101655.78;;;8.69;92.86
17230;BME280;8731;50.364;8.958;2024-01-30T21:47:58;101667.94;;;8.72;93.27
17230;BME280;8731;50.364;8.958;2024-01-30T21:52:20;101664.63;;;8.66;97.47
17230;BME280;8731;50.364;8.958;2024-01-30T21:56:42;101668.72;;;8.78;97.92
17230;BME280;8731;50.364;8.958;2024-01-30T22:01:06;101656.72;;;8.77;98.34
17230;BME280;8731;50.364;8.958;2024-01-30T22:05:28;101666.91;;;8.77;98.99
17230;BME280;8731;50.364;8.958;2024-01-30T22:09:51;101663.22;;;8.75;100.00
17230;BME280;8731;50.364;8.958;2024-01-30T22:14:13;101663.28;;;8.82;99.75
17230;BME280;8731;50.364;8.958;2024-01-30T22:18:37;101668.38;;;8.82;100.00
17230;BME280;8731;50.364;8.958;2024-01-30T22:23:01;101674.91;;;8.87;98.84
17230;BME280;8731;50.364;8.958;2024-01-30T22:27:23;101675.06;;;8.81;100.00
17230;BME280;8731;50.364;8.958;2024-01-30T22:31:46;101677.25;;;8.85;99.70
17230;BME280;8731;50.364;8.958;2024-01-30T22:36:09;101675.97;;;8.82;100.00
17230;BME280;8731;50.364;8.958;2024-01-30T22:40:31;101674.16;;;8.81;99.77
17230;BME280;8731;50.364;8.958;2024-01-30T22:44:54;101675.41;;;8.77;100.00
17230;BME280;8731;50.364;8.958;2024-01-30T22:49:16;101681.41;;;8.78;100.00
17230;BME280;8731;50.364;8.958;2024-01-30T22:53:40;101677.78;;;8.83;100.00
17230;BME280;8731;50.364;8.958;2024-01-30T22:58:02;101674.34;;;8.82;99.57
17230;BME280;8731;50.364;8.958;2024-01-30T23:02:25;101677.56;;;8.74;100.00
17230;BME280;8731;50.364;8.958;2024-01-30T23:06:47;101673.44;;;8.82;99.77
17230;BME280;8731;50.364;8.958;2024-01-30T23:11:11;101682.13;;;8.77;99.69
17230;BME280;8731;50.364;8.958;2024-01-30T23:15:34;101691.94;;;8.81;99.33
17230;BME280;8731;50.364;8.958;2024-01-30T23:19:56;101699.56;;;8.81;98.96
17230;BME280;8731;50.364;8.958;2024-01-30T23:24:19;101700.63;;;8.76;99.21
17230;BME280;8731;50.364;8.958;2024-01-30T23:28:43;101706.81;;;8.78;98.43
17230;BME280;8731;50.364;8.958;2024-01-30T23:33:05;101714.06;;;8.82;99.09